Time;durP1;ratioP1;P1;durP2;ratioP2;P2;SDS_P1;SDS_P2;PMS_P1;PMS_P2;Temp;Humidity;BMP_temperature;BMP_pressure;BME280_temperature;BME280_humidity;BME280_pressure;Samples;Min_cycle;Max_cycle;Signal;HPM_P1;HPM_P2
2022/06/23 00:01:34;;;;;;;1.20;1.20;;;;;;;;;;1767170;79;26353;-49
2022/06/23 00:04:01;;;;;;;1.50;1.50;;;;;;;;;;1751075;80;26312;-51
2022/06/23 00:06:36;;;;;;;1.42;1.42;;;;;;;;;;1780380;79;26764;-51
2022/06/23 00:09:05;;;;;;;1.40;1.40;;;;;;;;;;1772858;80;26336;-52
2022/06/23 00:11:32;;;;;;;1.42;1.42;;;;;;;;;;1750812;80;26318;-51
2022/06/23 00:14:06;;;;;;;1.47;1.47;;;;;;;;;;1756806;80;26390;-52
2022/06/23 00:16:33;;;;;;;1.40;1.40;;;;;;;;;;1758767;80;26245;-53
2022/06/23 00:19:01;;;;;;;1.30;1.30;;;;;;;;;;1778547;79;26269;-49
2022/06/23 00:21:30;;;;;;;1.30;1.30;;;;;;;;;;1775635;79;26783;-52
2022/06/23 00:23:59;;;;;;;1.40;1.40;;;;;;;;;;1773474;79;26811;-56
2022/06/23 00:26:28;;;;;;;1.27;1.27;;;;;;;;;;1748264;81;26302;-50
2022/06/23 00:29:02;;;;;;;1.30;1.30;;;;;;;;;;1751273;80;26287;-51
2022/06/23 00:31:34;;;;;;;1.30;1.30;;;;;;;;;;1739080;80;27182;-50
2022/06/23 00:34:03;;;;;;;1.30;1.30;;;;;;;;;;1753664;80;26350;-52
2022/06/23 00:36:31;;;;;;;1.42;1.42;;;;;;;;;;1746209;80;26664;-48
2022/06/23 00:38:59;;;;;;;1.27;1.27;;;;;;;;;;1764044;80;26348;-59
2022/06/23 00:41:28;;;;;;;1.42;1.42;;;;;;;;;;1758136;80;26228;-53
2022/06/23 00:43:56;;;;;;;1.12;1.12;;;;;;;;;;1757510;80;26345;-50
2022/06/23 00:46:31;;;;;;;1.22;1.22;;;;;;;;;;1761965;80;26361;-53
2022/06/23 00:49:03;;;;;;;1.10;1.10;;;;;;;;;;1753715;80;26718;-51
2022/06/23 00:51:32;;;;;;;1.17;1.17;;;;;;;;;;1756086;80;26282;-56
2022/06/23 00:54:01;;;;;;;1.10;1.10;;;;;;;;;;1769178;80;26279;-55
2022/06/23 00:56:29;;;;;;;1.30;1.30;;;;;;;;;;1777963;80;26297;-49
2022/06/23 00:59:05;;;;;;;1.20;1.20;;;;;;;;;;1766155;80;26235;-49
2022/06/23 01:01:34;;;;;;;1.27;1.27;;;;;;;;;;1773839;80;26288;-61
2022/06/23 01:04:02;;;;;;;1.25;1.25;;;;;;;;;;1746631;80;26347;-56
2022/06/23 01:06:34;;;;;;;1.20;1.20;;;;;;;;;;1771177;80;26435;-53
2022/06/23 01:09:06;;;;;;;1.30;1.30;;;;;;;;;;1771341;80;27416;-52
2022/06/23 01:11:35;;;;;;;1.20;1.20;;;;;;;;;;1767069;80;25450;-55
2022/06/23 01:14:06;;;;;;;1.10;1.10;;;;;;;;;;1762878;80;26287;-56
2022/06/23 01:16:35;;;;;;;1.12;1.12;;;;;;;;;;1760481;80;26341;-54
2022/06/23 01:19:21;;;;;;;1.30;1.30;;;;;;;;;;1759824;80;26325;-50
2022/06/23 01:21:50;;;;;;;1.17;1.17;;;;;;;;;;1761898;80;26243;-49
2022/06/23 01:24:21;;;;;;;1.10;1.10;;;;;;;;;;1746095;80;26299;-49
2022/06/23 01:26:59;;;;;;;1.10;1.10;;;;;;;;;;1737332;80;26283;-50
2022/06/23 01:29:43;;;;;;;1.05;1.05;;;;;;;;;;1748210;80;26801;-56
2022/06/23 01:32:27;;;;;;;1.25;1.25;;;;;;;;;;1739017;80;26375;-52
2022/06/23 01:35:02;;;;;;;1.20;1.20;;;;;;;;;;1748197;80;26428;-58
2022/06/23 01:37:33;;;;;;;1.15;1.15;;;;;;;;;;1762580;80;26349;-57
2022/06/23 01:40:02;;;;;;;1.27;1.20;;;;;;;;;;1757673;80;26301;-50
2022/06/23 01:42:31;;;;;;;1.10;1.10;;;;;;;;;;1761370;80;26310;-49
2022/06/23 01:45:00;;;;;;;1.10;1.10;;;;;;;;;;1760076;80;26348;-50
2022/06/23 01:47:29;;;;;;;1.17;1.17;;;;;;;;;;1772594;80;26814;-58
2022/06/23 01:49:57;;;;;;;1.12;1.12;;;;;;;;;;1764099;80;26733;-50
2022/06/23 01:52:25;;;;;;;1.10;1.10;;;;;;;;;;1758543;80;26826;-50
2022/06/23 01:54:54;;;;;;;1.10;1.10;;;;;;;;;;1750149;80;26285;-54
2022/06/23 01:57:31;;;;;;;1.07;1.07;;;;;;;;;;1722999;80;26368;-49
2022/06/23 02:00:13;;;;;;;1.02;1.02;;;;;;;;;;1781068;79;26421;-53
2022/06/23 02:02:50;;;;;;;1.10;1.10;;;;;;;;;;1776798;79;26253;-51
2022/06/23 02:05:25;;;;;;;1.17;1.17;;;;;;;;;;1770546;79;26246;-49
2022/06/23 02:08:06;;;;;;;1.10;1.10;;;;;;;;;;1741016;80;26390;-55
2022/06/23 02:10:41;;;;;;;1.30;1.30;;;;;;;;;;1779854;79;26348;-52
2022/06/23 02:13:28;;;;;;;1.30;1.30;;;;;;;;;;1750701;80;26326;-53
2022/06/23 02:15:57;;;;;;;1.20;1.20;;;;;;;;;;1751916;80;26284;-50
2022/06/23 02:18:31;;;;;;;1.10;1.10;;;;;;;;;;1751883;80;26406;-53
2022/06/23 02:21:01;;;;;;;1.00;1.00;;;;;;;;;;1749379;80;26336;-50
2022/06/23 02:23:30;;;;;;;1.00;1.00;;;;;;;;;;1764962;80;26351;-58
2022/06/23 02:25:59;;;;;;;1.20;1.20;;;;;;;;;;1736156;80;26801;-51
2022/06/23 02:28:27;;;;;;;1.12;1.12;;;;;;;;;;1758711;80;26941;-49
2022/06/23 02:30:56;;;;;;;1.02;1.02;;;;;;;;;;1761316;80;26861;-51
2022/06/23 02:33:37;;;;;;;1.00;1.00;;;;;;;;;;1750622;80;26821;-54
2022/06/23 02:36:18;;;;;;;1.00;1.00;;;;;;;;;;1753140;80;26761;-70
2022/06/23 02:38:46;;;;;;;0.90;0.90;;;;;;;;;;1744105;80;26294;-55
2022/06/23 02:41:18;;;;;;;1.15;1.15;;;;;;;;;;1744381;80;26330;-50
2022/06/23 02:43:50;;;;;;;1.20;1.20;;;;;;;;;;1746386;80;26284;-52
2022/06/23 02:46:18;;;;;;;1.20;1.20;;;;;;;;;;1752694;80;26344;-53
2022/06/23 02:49:04;;;;;;;1.00;1.00;;;;;;;;;;1752624;80;26364;-53
2022/06/23 02:51:33;;;;;;;1.07;1.07;;;;;;;;;;1750238;80;26365;-50
2022/06/23 02:54:18;;;;;;;1.00;1.00;;;;;;;;;;1754322;80;26294;-52
2022/06/23 02:56:47;;;;;;;0.80;0.80;;;;;;;;;;1751827;80;26354;-51
2022/06/23 02:59:17;;;;;;;1.00;1.00;;;;;;;;;;1748583;80;26244;-49
2022/06/23 03:01:55;;;;;;;1.10;1.10;;;;;;;;;;1753775;80;26324;-51
2022/06/23 03:04:24;;;;;;;0.95;0.95;;;;;;;;;;1750104;80;26298;-49
2022/06/23 03:06:58;;;;;;;1.00;1.00;;;;;;;;;;1761654;80;26348;-50
2022/06/23 03:09:42;;;;;;;1.02;1.02;;;;;;;;;;1755925;80;26359;-51
2022/06/23 03:12:14;;;;;;;1.02;1.02;;;;;;;;;;1755818;80;26308;-54
2022/06/23 03:15:01;;;;;;;0.80;0.80;;;;;;;;;;1772707;80;26292;-49
2022/06/23 03:17:30;;;;;;;0.98;0.98;;;;;;;;;;1773953;79;26786;-52
2022/06/23 03:20:02;;;;;;;1.00;1.00;;;;;;;;;;1783071;79;26739;-53
2022/06/23 03:22:33;;;;;;;0.90;0.90;;;;;;;;;;1791374;79;26336;-54
2022/06/23 03:25:02;;;;;;;1.00;1.00;;;;;;;;;;1747898;80;26312;-52
2022/06/23 03:27:31;;;;;;;0.90;0.90;;;;;;;;;;1755408;81;26325;-54
2022/06/23 03:30:03;;;;;;;1.00;1.00;;;;;;;;;;1746079;80;26349;-55
2022/06/23 03:32:47;;;;;;;1.10;1.10;;;;;;;;;;1742983;81;26330;-53
2022/06/23 03:35:24;;;;;;;1.00;1.00;;;;;;;;;;1763388;80;26230;-54
2022/06/23 03:38:05;;;;;;;0.90;0.90;;;;;;;;;;1733156;81;26286;-54
2022/06/23 03:43:42;;;;;;;1.00;1.00;;;;;;;;;;1710268;83;26910;-53
2022/06/23 03:46:23;;;;;;;1.00;1.00;;;;;;;;;;1746013;81;26755;-51
2022/06/23 03:49:00;;;;;;;0.82;0.82;;;;;;;;;;1736324;81;26305;-50
2022/06/23 03:51:35;;;;;;;1.00;1.00;;;;;;;;;;1718296;81;26301;-51
2022/06/23 03:54:04;;;;;;;0.90;0.90;;;;;;;;;;1737327;81;26367;-55
2022/06/23 03:56:49;;;;;;;0.80;0.80;;;;;;;;;;1739209;81;26316;-54
2022/06/23 03:59:18;;;;;;;0.90;0.90;;;;;;;;;;1755828;80;26309;-50
2022/06/23 04:01:47;;;;;;;0.90;0.90;;;;;;;;;;1729024;82;26392;-49
2022/06/23 04:04:16;;;;;;;0.80;0.80;;;;;;;;;;1721620;82;26356;-51
2022/06/23 04:06:45;;;;;;;0.72;0.72;;;;;;;;;;1746261;80;27581;-53
2022/06/23 04:09:27;;;;;;;0.88;0.88;;;;;;;;;;1747489;80;27173;-55
2022/06/23 04:12:05;;;;;;;0.80;0.80;;;;;;;;;;1726130;81;26306;-49
2022/06/23 04:14:40;;;;;;;0.80;0.80;;;;;;;;;;1749178;80;26784;-52
2022/06/23 04:17:09;;;;;;;0.70;0.70;;;;;;;;;;1706250;83;26292;-57
2022/06/23 04:19:36;;;;;;;0.80;0.80;;;;;;;;;;1712310;82;26301;-56
2022/06/23 04:22:08;;;;;;;0.80;0.80;;;;;;;;;;1717041;81;26265;-53
2022/06/23 04:24:37;;;;;;;0.80;0.80;;;;;;;;;;1730323;81;26371;-51
2022/06/23 04:27:06;;;;;;;0.88;0.88;;;;;;;;;;1737938;81;26261;-55
2022/06/23 04:29:36;;;;;;;0.88;0.88;;;;;;;;;;1734969;81;26316;-49
2022/06/23 04:32:11;;;;;;;0.90;0.90;;;;;;;;;;1751089;80;26344;-51
2022/06/23 04:34:40;;;;;;;0.80;0.80;;;;;;;;;;1762727;80;26367;-53
2022/06/23 04:37:09;;;;;;;0.70;0.70;;;;;;;;;;1754295;80;26379;-52
2022/06/23 04:39:38;;;;;;;0.80;0.80;;;;;;;;;;1749235;80;26344;-54
2022/06/23 04:42:10;;;;;;;0.70;0.70;;;;;;;;;;1740256;80;26295;-53
2022/06/23 04:44:39;;;;;;;0.80;0.80;;;;;;;;;;1750843;80;26375;-52
2022/06/23 04:47:08;;;;;;;0.80;0.80;;;;;;;;;;1768732;79;26396;-50
2022/06/23 04:49:42;;;;;;;0.80;0.80;;;;;;;;;;1776929;79;26303;-53
2022/06/23 04:52:14;;;;;;;0.80;0.80;;;;;;;;;;1776730;79;26277;-52
2022/06/23 04:54:46;;;;;;;0.85;0.85;;;;;;;;;;1747065;81;26279;-49
2022/06/23 04:57:17;;;;;;;0.80;0.80;;;;;;;;;;1766731;80;26313;-50
2022/06/23 04:59:52;;;;;;;0.80;0.80;;;;;;;;;;1784412;79;26298;-51
2022/06/23 05:02:21;;;;;;;0.70;0.70;;;;;;;;;;1738367;80;26276;-49
2022/06/23 05:04:55;;;;;;;0.70;0.70;;;;;;;;;;1757324;80;26313;-52
2022/06/23 05:07:24;;;;;;;0.65;0.65;;;;;;;;;;1750257;80;26780;-50
2022/06/23 05:09:53;;;;;;;0.82;0.82;;;;;;;;;;1762809;81;26314;-50
2022/06/23 05:12:28;;;;;;;0.65;0.65;;;;;;;;;;1734038;81;26246;-49
2022/06/23 05:15:07;;;;;;;0.70;0.70;;;;;;;;;;1759195;79;26758;-49
2022/06/23 05:17:36;;;;;;;0.60;0.60;;;;;;;;;;1777682;79;26290;-51
2022/06/23 05:20:05;;;;;;;0.80;0.80;;;;;;;;;;1777579;79;26360;-51
2022/06/23 05:22:36;;;;;;;0.70;0.70;;;;;;;;;;1776780;79;26281;-57
2022/06/23 05:25:08;;;;;;;0.70;0.70;;;;;;;;;;1747776;81;26285;-51
2022/06/23 05:27:36;;;;;;;0.75;0.75;;;;;;;;;;1749605;80;26349;-52
2022/06/23 05:30:05;;;;;;;0.50;0.50;;;;;;;;;;1745479;80;26317;-51
2022/06/23 05:32:34;;;;;;;0.60;0.60;;;;;;;;;;1746419;80;26330;-53
2022/06/23 05:35:02;;;;;;;0.70;0.70;;;;;;;;;;1774469;79;26328;-59
2022/06/23 05:37:34;;;;;;;0.62;0.62;;;;;;;;;;1770599;79;26820;-54
2022/06/23 05:40:09;;;;;;;0.62;0.62;;;;;;;;;;1759331;79;26360;-55
2022/06/23 05:42:37;;;;;;;0.60;0.60;;;;;;;;;;1767936;80;26371;-55
2022/06/23 05:45:06;;;;;;;0.60;0.60;;;;;;;;;;1746307;81;26361;-53
2022/06/23 05:47:34;;;;;;;0.60;0.60;;;;;;;;;;1751894;81;26349;-58
2022/06/23 05:50:03;;;;;;;0.70;0.70;;;;;;;;;;1726584;81;26325;-53
2022/06/23 05:52:35;;;;;;;0.62;0.62;;;;;;;;;;1746282;80;26400;-53
2022/06/23 05:55:09;;;;;;;0.70;0.70;;;;;;;;;;1763007;79;26293;-55
2022/06/23 05:57:38;;;;;;;0.65;0.65;;;;;;;;;;1737636;81;26292;-49
2022/06/23 06:00:14;;;;;;;0.65;0.65;;;;;;;;;;1759744;80;26272;-51
2022/06/23 06:02:51;;;;;;;0.70;0.70;;;;;;;;;;1754046;80;26321;-50
2022/06/23 06:05:20;;;;;;;0.65;0.65;;;;;;;;;;1752221;80;26348;-49
2022/06/23 06:07:47;;;;;;;0.60;0.60;;;;;;;;;;1776862;79;26447;-55
2022/06/23 06:10:17;;;;;;;0.70;0.70;;;;;;;;;;1775026;79;26328;-51
2022/06/23 06:12:44;;;;;;;0.62;0.62;;;;;;;;;;1750220;80;26246;-50
2022/06/23 06:15:13;;;;;;;0.60;0.60;;;;;;;;;;1755085;80;26267;-52
2022/06/23 06:17:41;;;;;;;0.60;0.60;;;;;;;;;;1752788;80;26326;-57
2022/06/23 06:20:10;;;;;;;0.60;0.60;;;;;;;;;;1749680;80;26317;-53
2022/06/23 06:22:48;;;;;;;0.60;0.60;;;;;;;;;;1733573;80;26279;-60
2022/06/23 06:25:23;;;;;;;0.55;0.55;;;;;;;;;;1762044;80;26291;-58
2022/06/23 06:27:51;;;;;;;0.62;0.62;;;;;;;;;;1762225;80;26310;-49
2022/06/23 06:30:19;;;;;;;0.70;0.70;;;;;;;;;;1759510;80;26247;-50
2022/06/23 06:32:47;;;;;;;0.60;0.60;;;;;;;;;;1754993;80;26394;-55
2022/06/23 06:35:25;;;;;;;0.60;0.60;;;;;;;;;;1774958;79;26716;-50
2022/06/23 06:37:54;;;;;;;0.60;0.60;;;;;;;;;;1737414;81;26677;-49
2022/06/23 06:40:21;;;;;;;0.60;0.60;;;;;;;;;;1773659;80;26752;-50
2022/06/23 06:42:50;;;;;;;0.70;0.70;;;;;;;;;;1772295;80;26291;-52
2022/06/23 06:45:19;;;;;;;0.60;0.60;;;;;;;;;;1741594;80;26238;-50
2022/06/23 06:47:47;;;;;;;0.60;0.60;;;;;;;;;;1776305;79;26325;-53
2022/06/23 06:50:27;;;;;;;0.62;0.62;;;;;;;;;;1764261;79;26679;-52
2022/06/23 06:52:55;;;;;;;0.60;0.60;;;;;;;;;;1731207;82;26333;-50
2022/06/23 06:55:27;;;;;;;0.53;0.53;;;;;;;;;;1755855;79;26374;-50
2022/06/23 06:57:56;;;;;;;0.62;0.62;;;;;;;;;;1749463;79;26277;-49
2022/06/23 07:00:24;;;;;;;0.60;0.60;;;;;;;;;;1752537;79;26335;-52
2022/06/23 07:02:53;;;;;;;0.60;0.60;;;;;;;;;;1774595;79;26372;-56
2022/06/23 07:05:26;;;;;;;0.60;0.60;;;;;;;;;;1767112;79;26286;-51
2022/06/23 07:08:04;;;;;;;0.60;0.60;;;;;;;;;;1761809;79;26342;-50
2022/06/23 07:10:32;;;;;;;0.40;0.40;;;;;;;;;;1768413;79;26286;-55
2022/06/23 07:13:02;;;;;;;0.60;0.60;;;;;;;;;;1770833;80;26318;-57
2022/06/23 07:15:34;;;;;;;0.60;0.60;;;;;;;;;;1770543;79;26281;-52
2022/06/23 07:18:18;;;;;;;0.60;0.60;;;;;;;;;;1768665;80;26416;-52
2022/06/23 07:20:55;;;;;;;0.60;0.60;;;;;;;;;;1763727;79;26646;-51
2022/06/23 07:23:24;;;;;;;0.70;0.70;;;;;;;;;;1770442;79;26317;-51
2022/06/23 07:25:53;;;;;;;0.60;0.60;;;;;;;;;;1770684;79;26278;-54
2022/06/23 07:28:24;;;;;;;0.50;0.50;;;;;;;;;;1770683;80;26776;-52
2022/06/23 07:30:53;;;;;;;0.50;0.50;;;;;;;;;;1770348;79;26334;-51
2022/06/23 07:33:22;;;;;;;0.50;0.50;;;;;;;;;;1770322;79;26396;-49
2022/06/23 07:36:00;;;;;;;0.70;0.70;;;;;;;;;;1769448;79;26368;-57
2022/06/23 07:38:29;;;;;;;0.70;0.70;;;;;;;;;;1766826;79;26309;-50
2022/06/23 07:41:07;;;;;;;0.70;0.70;;;;;;;;;;1768292;79;26348;-49
2022/06/23 07:43:36;;;;;;;0.70;0.70;;;;;;;;;;1754593;80;26357;-51
2022/06/23 07:46:03;;;;;;;0.62;0.62;;;;;;;;;;1769218;79;26298;-58
2022/06/23 07:48:32;;;;;;;0.60;0.60;;;;;;;;;;1766781;79;26320;-49
2022/06/23 07:51:00;;;;;;;0.57;0.57;;;;;;;;;;1767026;79;26372;-53
2022/06/23 07:53:31;;;;;;;0.60;0.60;;;;;;;;;;1754438;79;26290;-51
2022/06/23 07:56:00;;;;;;;0.60;0.60;;;;;;;;;;1789159;80;26384;-49
2022/06/23 07:58:29;;;;;;;0.60;0.60;;;;;;;;;;1764498;79;26333;-52
2022/06/23 08:01:03;;;;;;;0.50;0.50;;;;;;;;;;1769820;79;26360;-66
2022/06/23 08:03:32;;;;;;;0.70;0.70;;;;;;;;;;1752503;79;26340;-50
2022/06/23 08:06:01;;;;;;;0.60;0.60;;;;;;;;;;1770690;79;26349;-50
2022/06/23 08:08:30;;;;;;;0.60;0.60;;;;;;;;;;1770237;80;26746;-57
2022/06/23 08:13:45;;;;;;;0.57;0.57;;;;;;;;;;1770327;79;26334;-51
2022/06/23 08:19:10;;;;;;;0.60;0.60;;;;;;;;;;1787683;79;26404;-55
2022/06/23 08:21:39;;;;;;;0.60;0.60;;;;;;;;;;1768685;79;26378;-49
2022/06/23 08:24:18;;;;;;;0.60;0.60;;;;;;;;;;1768202;80;26651;-53
2022/06/23 08:26:47;;;;;;;0.50;0.50;;;;;;;;;;1766977;79;26388;-49
2022/06/23 08:29:15;;;;;;;0.60;0.60;;;;;;;;;;1768248;79;26290;-50
2022/06/23 08:31:43;;;;;;;0.70;0.70;;;;;;;;;;1769480;79;26297;-55
2022/06/23 08:34:11;;;;;;;0.60;0.60;;;;;;;;;;1769607;79;26854;-52
2022/06/23 08:36:40;;;;;;;0.60;0.60;;;;;;;;;;1767671;79;26396;-54
2022/06/23 08:39:08;;;;;;;0.53;0.53;;;;;;;;;;1767922;79;26306;-53
2022/06/23 08:41:40;;;;;;;0.60;0.60;;;;;;;;;;1765473;79;26260;-54
2022/06/23 08:44:11;;;;;;;0.60;0.60;;;;;;;;;;1763476;79;26282;-51
2022/06/23 08:46:40;;;;;;;0.55;0.55;;;;;;;;;;1767203;79;26306;-52
2022/06/23 08:49:12;;;;;;;0.60;0.60;;;;;;;;;;1770904;80;26235;-50
2022/06/23 08:51:56;;;;;;;0.60;0.60;;;;;;;;;;1770003;79;26357;-49
2022/06/23 08:54:41;;;;;;;0.50;0.50;;;;;;;;;;1765321;79;26345;-50
2022/06/23 08:57:13;;;;;;;0.60;0.60;;;;;;;;;;1771355;79;26371;-55
2022/06/23 09:00:00;;;;;;;0.68;0.68;;;;;;;;;;1766387;79;26266;-49
2022/06/23 09:02:29;;;;;;;0.60;0.60;;;;;;;;;;1770117;80;26298;-55
2022/06/23 09:05:04;;;;;;;0.60;0.60;;;;;;;;;;1756300;79;26404;-52
2022/06/23 09:07:44;;;;;;;0.50;0.50;;;;;;;;;;1764887;79;26314;-53
2022/06/23 09:10:22;;;;;;;0.70;0.70;;;;;;;;;;1761627;79;26293;-57
2022/06/23 09:13:06;;;;;;;0.60;0.60;;;;;;;;;;1760499;79;26710;-48
2022/06/23 09:15:41;;;;;;;0.60;0.60;;;;;;;;;;1762134;79;26301;-51
2022/06/23 09:18:22;;;;;;;0.53;0.53;;;;;;;;;;1769081;79;26816;-53
2022/06/23 09:20:51;;;;;;;0.60;0.60;;;;;;;;;;1767953;79;26302;-50
2022/06/23 09:23:26;;;;;;;0.60;0.60;;;;;;;;;;1747353;81;26253;-51
2022/06/23 09:26:13;;;;;;;0.53;0.53;;;;;;;;;;1754404;80;26321;-60
2022/06/23 09:28:54;;;;;;;0.60;0.60;;;;;;;;;;1771311;80;26677;-50
2022/06/23 09:31:23;;;;;;;0.57;0.57;;;;;;;;;;1784580;79;26321;-52
2022/06/23 09:34:04;;;;;;;0.70;0.70;;;;;;;;;;1784313;79;26341;-49
2022/06/23 09:36:32;;;;;;;0.60;0.60;;;;;;;;;;1781371;79;26808;-56
2022/06/23 09:39:14;;;;;;;0.60;0.60;;;;;;;;;;1785331;79;26878;-52
2022/06/23 09:41:55;;;;;;;0.50;0.50;;;;;;;;;;1778528;79;26352;-55
2022/06/23 09:44:33;;;;;;;0.50;0.50;;;;;;;;;;1776330;79;26184;-56
2022/06/23 09:47:02;;;;;;;0.70;0.70;;;;;;;;;;1769146;79;27238;-53
2022/06/23 09:49:47;;;;;;;0.70;0.70;;;;;;;;;;1750694;81;26331;-53
2022/06/23 09:52:28;;;;;;;0.60;0.60;;;;;;;;;;1728524;81;26242;-49
2022/06/23 09:55:09;;;;;;;0.60;0.60;;;;;;;;;;1719574;82;26359;-49
2022/06/23 09:57:46;;;;;;;0.60;0.60;;;;;;;;;;1748330;80;26294;-50
2022/06/23 10:00:18;;;;;;;0.60;0.60;;;;;;;;;;1758318;80;26308;-52
2022/06/23 10:02:54;;;;;;;0.60;0.60;;;;;;;;;;1789733;79;26306;-47
2022/06/23 10:05:23;;;;;;;0.50;0.50;;;;;;;;;;1751180;80;26305;-50
2022/06/23 10:07:51;;;;;;;0.60;0.60;;;;;;;;;;1775587;79;26392;-50
2022/06/23 10:10:26;;;;;;;0.50;0.50;;;;;;;;;;1788539;79;26273;-53
2022/06/23 10:13:12;;;;;;;0.68;0.68;;;;;;;;;;1754076;80;26356;-51
2022/06/23 10:15:43;;;;;;;0.70;0.70;;;;;;;;;;1765011;80;26369;-53
2022/06/23 10:18:21;;;;;;;0.65;0.65;;;;;;;;;;1752987;79;26778;-52
2022/06/23 10:20:53;;;;;;;0.62;0.62;;;;;;;;;;1750316;80;26286;-53
2022/06/23 10:23:39;;;;;;;0.60;0.60;;;;;;;;;;1749117;80;26369;-49
2022/06/23 10:26:07;;;;;;;0.70;0.70;;;;;;;;;;1751852;81;26780;-54
2022/06/23 10:28:48;;;;;;;0.70;0.70;;;;;;;;;;1754248;80;26742;-49
2022/06/23 10:31:35;;;;;;;0.80;0.80;;;;;;;;;;1752781;80;26820;-51
2022/06/23 10:34:19;;;;;;;0.70;0.70;;;;;;;;;;1752959;80;26789;-60
2022/06/23 10:37:06;;;;;;;0.60;0.60;;;;;;;;;;1763833;79;26800;-49
2022/06/23 10:39:38;;;;;;;0.70;0.70;;;;;;;;;;1749540;80;26312;-51
2022/06/23 10:42:09;;;;;;;0.70;0.70;;;;;;;;;;1755459;80;26297;-54
2022/06/23 10:44:53;;;;;;;0.65;0.65;;;;;;;;;;1758329;80;26292;-54
2022/06/23 10:47:34;;;;;;;0.70;0.70;;;;;;;;;;1766703;79;26301;-50
2022/06/23 10:50:06;;;;;;;0.70;0.70;;;;;;;;;;1755156;81;26372;-57
2022/06/23 10:52:35;;;;;;;0.80;0.80;;;;;;;;;;1750376;80;26290;-56
2022/06/23 10:55:22;;;;;;;0.70;0.70;;;;;;;;;;1744453;80;26329;-60
2022/06/23 10:57:51;;;;;;;0.70;0.70;;;;;;;;;;1749533;80;26371;-54
2022/06/23 11:00:19;;;;;;;0.80;0.80;;;;;;;;;;1754413;81;26311;-51
2022/06/23 11:03:00;;;;;;;0.80;0.80;;;;;;;;;;1739620;81;26720;-49
2022/06/23 11:05:46;;;;;;;0.70;0.70;;;;;;;;;;1738926;80;26364;-54
2022/06/23 11:08:30;;;;;;;0.70;0.70;;;;;;;;;;1762959;80;26851;-52
2022/06/23 11:11:02;;;;;;;0.70;0.70;;;;;;;;;;1748235;80;26308;-55
2022/06/23 11:13:43;;;;;;;0.80;0.80;;;;;;;;;;1752650;80;26344;-51
2022/06/23 11:16:17;;;;;;;0.70;0.70;;;;;;;;;;1767478;80;26293;-51
2022/06/23 11:19:01;;;;;;;0.80;0.80;;;;;;;;;;1741679;80;26779;-55
2022/06/23 11:21:30;;;;;;;0.70;0.70;;;;;;;;;;1746741;80;26340;-50
2022/06/23 11:24:16;;;;;;;0.70;0.70;;;;;;;;;;1760306;80;26297;-50
2022/06/23 11:27:01;;;;;;;0.70;0.70;;;;;;;;;;1746567;80;26268;-49
2022/06/23 11:29:33;;;;;;;0.62;0.62;;;;;;;;;;1746500;80;26732;-50
2022/06/23 11:32:05;;;;;;;0.80;0.80;;;;;;;;;;1740641;80;26300;-56
2022/06/23 11:34:40;;;;;;;0.70;0.70;;;;;;;;;;1745719;80;26349;-53
2022/06/23 11:37:08;;;;;;;0.60;0.60;;;;;;;;;;1764204;80;26326;-53
2022/06/23 11:39:40;;;;;;;0.80;0.80;;;;;;;;;;1746049;80;26302;-49
2022/06/23 11:42:09;;;;;;;0.70;0.70;;;;;;;;;;1769392;79;26337;-50
2022/06/23 11:44:44;;;;;;;0.70;0.70;;;;;;;;;;1774052;79;26310;-52
2022/06/23 11:47:15;;;;;;;0.70;0.70;;;;;;;;;;1794740;79;26290;-52
2022/06/23 11:49:47;;;;;;;0.80;0.80;;;;;;;;;;1788025;79;26317;-54
2022/06/23 11:52:31;;;;;;;0.60;0.60;;;;;;;;;;1746288;80;26690;-52
2022/06/23 11:54:59;;;;;;;0.70;0.70;;;;;;;;;;1731791;80;26379;-52
2022/06/23 11:57:34;;;;;;;0.72;0.72;;;;;;;;;;1732638;80;26773;-53
2022/06/23 12:00:06;;;;;;;0.70;0.70;;;;;;;;;;1727958;80;26333;-59
2022/06/23 12:02:35;;;;;;;0.75;0.75;;;;;;;;;;1767654;80;26362;-54
2022/06/23 12:05:07;;;;;;;0.62;0.62;;;;;;;;;;1755320;80;26422;-60
2022/06/23 12:07:36;;;;;;;0.80;0.80;;;;;;;;;;1758333;80;26292;-53
2022/06/23 12:10:25;;;;;;;0.70;0.70;;;;;;;;;;1752164;80;26348;-51
2022/06/23 12:12:50;;;;;;;0.70;0.70;;;;;;;;;;1757052;80;26760;-51
2022/06/23 12:15:20;;;;;;;0.70;0.70;;;;;;;;;;1752461;80;26253;-49
2022/06/23 12:18:01;;;;;;;0.90;0.90;;;;;;;;;;1753515;80;26372;-53
2022/06/23 12:20:46;;;;;;;0.80;0.80;;;;;;;;;;1752713;80;26293;-50
2022/06/23 12:23:21;;;;;;;0.70;0.70;;;;;;;;;;1743211;80;26371;-51
2022/06/23 12:25:53;;;;;;;0.70;0.70;;;;;;;;;;1774193;79;26749;-61
2022/06/23 12:28:22;;;;;;;0.70;0.70;;;;;;;;;;1768848;79;26230;-49
2022/06/23 12:30:53;;;;;;;0.80;0.80;;;;;;;;;;1774384;79;26294;-51
2022/06/23 12:33:25;;;;;;;0.72;0.72;;;;;;;;;;1785006;79;26348;-50
2022/06/23 12:36:10;;;;;;;0.82;0.82;;;;;;;;;;1745296;80;26379;-64
2022/06/23 12:38:39;;;;;;;0.78;0.78;;;;;;;;;;1736554;81;26320;-52
2022/06/23 12:41:13;;;;;;;0.72;0.72;;;;;;;;;;1744898;81;26316;-54
2022/06/23 12:43:51;;;;;;;0.70;0.70;;;;;;;;;;1744259;81;26233;-52
2022/06/23 12:46:20;;;;;;;0.70;0.70;;;;;;;;;;1754003;81;26275;-51
2022/06/23 12:48:55;;;;;;;0.80;0.80;;;;;;;;;;1741852;81;26234;-54
2022/06/23 12:51:27;;;;;;;0.72;0.72;;;;;;;;;;1742158;81;26312;-55
2022/06/23 12:53:56;;;;;;;0.70;0.70;;;;;;;;;;1749772;81;26296;-50
2022/06/23 12:56:36;;;;;;;0.88;0.88;;;;;;;;;;1742566;81;26280;-49
2022/06/23 12:59:11;;;;;;;0.75;0.75;;;;;;;;;;1760960;81;26403;-56
2022/06/23 13:01:41;;;;;;;0.80;0.80;;;;;;;;;;1738163;81;26380;-60
2022/06/23 13:04:16;;;;;;;0.70;0.70;;;;;;;;;;1750097;81;26307;-58
2022/06/23 13:06:45;;;;;;;0.80;0.80;;;;;;;;;;1746622;81;26366;-62
2022/06/23 13:09:16;;;;;;;0.80;0.80;;;;;;;;;;1739538;81;26319;-54
2022/06/23 13:11:46;;;;;;;0.98;0.98;;;;;;;;;;1740794;81;26292;-57
2022/06/23 13:14:15;;;;;;;0.90;0.90;;;;;;;;;;1732200;81;26787;-50
2022/06/23 13:16:43;;;;;;;0.90;0.90;;;;;;;;;;1736496;81;26752;-57
2022/06/23 13:19:12;;;;;;;0.80;0.80;;;;;;;;;;1722495;81;26838;-54
2022/06/23 13:21:40;;;;;;;0.70;0.70;;;;;;;;;;1748609;81;26753;-49
2022/06/23 13:24:09;;;;;;;0.95;0.95;;;;;;;;;;1743992;81;26257;-51
2022/06/23 13:26:41;;;;;;;0.82;0.82;;;;;;;;;;1744894;81;26859;-51
2022/06/23 13:29:09;;;;;;;0.98;0.98;;;;;;;;;;1722107;81;26370;-58
2022/06/23 13:31:41;;;;;;;0.90;0.90;;;;;;;;;;1735220;81;26346;-50
2022/06/23 13:34:19;;;;;;;0.80;0.80;;;;;;;;;;1724831;81;26285;-54
2022/06/23 13:36:48;;;;;;;0.80;0.80;;;;;;;;;;1749889;80;26740;-62
2022/06/23 13:39:35;;;;;;;0.90;0.90;;;;;;;;;;1756997;80;26326;-51
2022/06/23 13:42:07;;;;;;;0.80;0.80;;;;;;;;;;1752089;80;26306;-52
2022/06/23 13:44:53;;;;;;;0.90;0.90;;;;;;;;;;1769255;80;26303;-50
2022/06/23 13:47:22;;;;;;;0.80;0.80;;;;;;;;;;1757650;80;26396;-52
2022/06/23 13:49:57;;;;;;;0.70;0.70;;;;;;;;;;1752776;80;26370;-52
2022/06/23 13:52:35;;;;;;;0.82;0.82;;;;;;;;;;1757624;80;26724;-62
2022/06/23 13:55:18;;;;;;;0.90;0.90;;;;;;;;;;1742706;80;26370;-56
2022/06/23 13:57:47;;;;;;;0.82;0.82;;;;;;;;;;1754175;80;26253;-53
2022/06/23 14:00:16;;;;;;;0.80;0.80;;;;;;;;;;1743792;80;26378;-51
2022/06/23 14:02:51;;;;;;;0.80;0.80;;;;;;;;;;1733782;80;26686;-51
2022/06/23 14:05:39;;;;;;;0.90;0.90;;;;;;;;;;1756652;80;26370;-48
2022/06/23 14:08:23;;;;;;;0.90;0.90;;;;;;;;;;1759029;80;26363;-54
2022/06/23 14:11:06;;;;;;;0.80;0.80;;;;;;;;;;1752190;80;26297;-51
2022/06/23 14:13:44;;;;;;;1.00;1.00;;;;;;;;;;1746906;80;26296;-51
2022/06/23 14:16:28;;;;;;;1.00;1.00;;;;;;;;;;1746812;80;26308;-49
2022/06/23 14:18:57;;;;;;;0.88;0.88;;;;;;;;;;1763213;80;26353;-49
2022/06/23 14:21:26;;;;;;;1.00;1.00;;;;;;;;;;1757440;80;26367;-57
2022/06/23 14:23:55;;;;;;;1.07;1.00;;;;;;;;;;1728924;80;26365;-50
2022/06/23 14:26:26;;;;;;;0.90;0.90;;;;;;;;;;1759686;80;26415;-48
2022/06/23 14:29:07;;;;;;;1.00;1.00;;;;;;;;;;1765765;80;26378;-50
2022/06/23 14:31:42;;;;;;;0.98;0.98;;;;;;;;;;1746882;80;26308;-52
2022/06/23 14:34:16;;;;;;;1.00;1.00;;;;;;;;;;1753342;80;26315;-55
2022/06/23 14:36:48;;;;;;;1.00;1.00;;;;;;;;;;1759934;80;26677;-54
2022/06/23 14:39:29;;;;;;;1.00;1.00;;;;;;;;;;1752649;80;26309;-53
2022/06/23 14:41:58;;;;;;;0.90;0.90;;;;;;;;;;1756722;80;26787;-51
2022/06/23 14:44:29;;;;;;;0.90;0.90;;;;;;;;;;1765348;80;26839;-52
2022/06/23 14:47:14;;;;;;;0.90;0.90;;;;;;;;;;1753662;80;26390;-52
2022/06/23 14:49:59;;;;;;;1.00;1.00;;;;;;;;;;1745190;80;26341;-48
2022/06/23 14:52:28;;;;;;;0.93;0.93;;;;;;;;;;1749561;80;26319;-56
2022/06/23 14:54:57;;;;;;;0.95;0.95;;;;;;;;;;1755507;80;26289;-52
2022/06/23 14:57:43;;;;;;;0.90;0.90;;;;;;;;;;1755723;80;26308;-52
2022/06/23 15:00:12;;;;;;;0.95;0.95;;;;;;;;;;1759080;79;26293;-57
2022/06/23 15:02:47;;;;;;;0.98;0.98;;;;;;;;;;1752436;80;26312;-52
2022/06/23 15:05:28;;;;;;;0.98;0.98;;;;;;;;;;1769191;79;26799;-49
2022/06/23 15:07:57;;;;;;;0.88;0.88;;;;;;;;;;1752421;80;26769;-52
2022/06/23 15:10:26;;;;;;;0.90;0.90;;;;;;;;;;1747804;80;26398;-50
2022/06/23 15:12:55;;;;;;;1.00;1.00;;;;;;;;;;1746866;80;26375;-51
2022/06/23 15:15:29;;;;;;;1.00;1.00;;;;;;;;;;1789626;79;26764;-55
2022/06/23 15:18:04;;;;;;;1.00;1.00;;;;;;;;;;1750935;80;26782;-50
2022/06/23 15:20:33;;;;;;;0.98;0.98;;;;;;;;;;1779045;79;26344;-48
2022/06/23 15:23:14;;;;;;;0.93;0.93;;;;;;;;;;1749584;80;26312;-53
2022/06/23 15:25:41;;;;;;;1.10;1.10;;;;;;;;;;1775243;79;26380;-59
2022/06/23 15:28:10;;;;;;;1.00;1.00;;;;;;;;;;1771484;79;26781;-57